This is the latest recevied weather packets stored in our database for station/object KE8WAY. If no packets are shown the sender has not sent any weather packets the latest 10 day(s).
| Time | Temp. | Humidity | Pressure | Rain* | Wind** | Luminosity | Snow |
|---|---|---|---|---|---|---|---|
| 1778150533 | 4.44° C | 86% | 1012 hPa | 0 mm | - | 10 W/m² | - |
| 1778150229 | 4.44° C | 85% | 1012 hPa | 0 mm | - | 7 W/m² | - |
| 1778149925 | 4.44° C | 85% | 1012.1 hPa | 0 mm | - | 4 W/m² | - |
| 1778149622 | 4.44° C | 85% | 1012.2 hPa | 0 mm | - | 2 W/m² | - |
| 1778149318 | 4.44° C | 85% | 1012.1 hPa | 0 mm | - | 0 W/m² | - |
| 1778149014 | 4.44° C | 84% | 1012.1 hPa | 0 mm | - | 0 W/m² | - |
| 1778148710 | 5° C | 83% | 1011.9 hPa | 0 mm | - | 0 W/m² | - |
| 1778148408 | 4.44° C | 84% | 1012.1 hPa | 0 mm | - | 0 W/m² | - |
| 1778148106 | 4.44° C | 85% | 1012.1 hPa | 0 mm | - | 0 W/m² | - |
| 1778147803 | 3.89° C | 85% | 1012 hPa | 0 mm | - | 0 W/m² | - |
| 1778147500 | 4.44° C | 85% | 1011.9 hPa | 0 mm | - | 0 W/m² | - |
| 1778147196 | 5.56° C | 82% | 1011.9 hPa | 0 mm | - | 0 W/m² | - |
| 1778146893 | 5.56° C | 80% | 1011.9 hPa | 0 mm | - | 0 W/m² | - |
| 1778146590 | 6.11° C | 79% | 1011.9 hPa | 0 mm | - | 0 W/m² | - |
| 1778146289 | 5.56° C | 79% | 1011.7 hPa | 0 mm | - | 0 W/m² | - |
| 1778145986 | 5° C | 82% | 1011.9 hPa | 0 mm | - | 0 W/m² | - |
| 1778145682 | 5° C | 82% | 1011.8 hPa | 0 mm | - | 0 W/m² | - |
| 1778145379 | 5.56° C | 82% | 1011.8 hPa | 0 mm | - | 0 W/m² | - |
| 1778145074 | 6.67° C | 77% | 1011.6 hPa | 0 mm | - | 0 W/m² | - |
| 1778144770 | 6.67° C | 75% | 1011.5 hPa | 0 mm | - | 0 W/m² | - |
| 1778144468 | 6.11° C | 77% | 1011.8 hPa | 0 mm | - | 0 W/m² | - |
| 1778144164 | 6.11° C | 78% | 1011.8 hPa | 0 mm | - | 0 W/m² | - |
| 1778143861 | 6.11° C | 78% | 1011.9 hPa | 0 mm | - | 0 W/m² | - |
| 1778143558 | 6.67° C | 74% | 1012 hPa | 0 mm | - | 0 W/m² | - |
| 1778143255 | 7.78° C | 73% | 1012.1 hPa | 0 mm | - | 0 W/m² | - |
* Rain latest hour (hover to see other rain measurements)
** Current wind speed in m/s (hover to see current wind gust speed)